Main page
METAR-TAF:

METAR-TAF

Airports :

Palonegro International Airport

Bucaramanga, Colombia

latitude: 07-06N, longitude: 073-12W, elevation: 1189 m

Current weather observation

The report was made 58 minutes ago, at 18:00 UTC
Wind 5 kt from the Northwest
Temperature 27°C
Humidity 58%
Pressure 1013 hPa
Visibility 10 km or more
Scattered clouds at a height of 1700 ft

METAR: SKBG 151800Z 31005KT 9999 SCT017 27/18 Q1013 WS R35 RMK A2993

Time: 13:58 (18:58 UTC)

Forecast

The report was made 2 hours and 28 minutes ago, at 16:30 UTC
Forecast valid from 15 at 18 UTC to 16 at 18 UTC
Wind 8 kt from the Northwest
Visibility 10 km or more
Scattered clouds at a height of 1700 ft
Scattered clouds at a height of 7000 ft
Becoming
from 16 at 00 UTC to 16 at 02 UTC
Wind 2 kt from variable directions

TAF: SKBG 151630Z 1518/1618 32008KT 9999 SCT017 SCT070 BECMG 1600/1602 VRB02KT TX28/1519Z TN18/1610Z

Weather observations and forecasts of more than 4000 airports (METAR and TAF reports).

The available stations are represented by yellow and red dots on the map.

Hover mouse over dot to see the name of the station.

Then click to see weather observations and forecasts.

To change the map : click on the green buttons with a black cross to zoom in, on the green button with a dash to zoom out, or on the green arrows for adjacent maps.


METAR-TAF: